Time;durP1;ratioP1;P1;durP2;ratioP2;P2;SDS_P1;SDS_P2;PMS_P1;PMS_P2;Temp;Humidity;BMP_temperature;BMP_pressure;BME280_temperature;BME280_humidity;BME280_pressure;Samples;Min_cycle;Max_cycle;Signal;HPM_P1;HPM_P2
2024/04/01 00:00:35;;;;;;;1.17;0.93;;;20.70;74.60;;;;;;5088338;28;20856;-79
2024/04/01 00:03:01;;;;;;;1.53;1.43;;;20.70;74.50;;;;;;5088077;28;20429;-76
2024/04/01 00:05:26;;;;;;;4.27;3.57;;;20.60;74.60;;;;;;5088538;28;20421;-76
2024/04/01 00:07:52;;;;;;;0.70;0.63;;;20.60;74.70;;;;;;5087931;28;20432;-76
2024/04/01 00:10:18;;;;;;;0.53;0.43;;;20.60;74.80;;;;;;5086801;28;20184;-76
2024/04/01 00:12:44;;;;;;;0.80;0.80;;;20.50;74.80;;;;;;5086385;28;20425;-80
2024/04/01 00:15:10;;;;;;;0.60;0.60;;;20.50;74.70;;;;;;5086488;28;20499;-76
2024/04/01 00:17:36;;;;;;;0.30;0.20;;;20.50;74.70;;;;;;5088028;28;20644;-76
2024/04/01 00:20:02;;;;;;;3.73;3.33;;;20.60;74.70;;;;;;5086941;28;20188;-80
2024/04/01 00:22:28;;;;;;;2.00;1.90;;;20.70;74.60;;;;;;5088168;28;20188;-76
2024/04/01 00:24:53;;;;;;;3.17;2.00;;;20.70;74.50;;;;;;5088156;28;20971;-77
2024/04/01 00:27:19;;;;;;;0.30;0.20;;;20.80;74.50;;;;;;5087451;28;20271;-76
2024/04/01 00:29:45;;;;;;;0.70;0.70;;;20.80;74.40;;;;;;5086517;28;20180;-80
2024/04/01 00:32:10;;;;;;;0.30;0.20;;;20.80;74.20;;;;;;5087347;28;20172;-76
2024/04/01 00:34:36;;;;;;;0.70;0.70;;;20.80;74.30;;;;;;5087806;28;20203;-80
2024/04/01 00:37:02;;;;;;;2.30;2.03;;;20.90;74.30;;;;;;5085749;28;20176;-78
2024/04/01 00:39:27;;;;;;;0.30;0.30;;;20.90;74.30;;;;;;5086292;28;20280;-76
2024/04/01 00:41:53;;;;;;;3.43;2.17;;;20.90;74.30;;;;;;5087599;28;20204;-80
2024/04/01 00:44:19;;;;;;;0.30;0.20;;;20.90;74.30;;;;;;5086663;28;20866;-80
2024/04/01 00:46:45;;;;;;;3.33;1.40;;;20.90;74.40;;;;;;5086204;28;20199;-76
2024/04/01 00:49:12;;;;;;;0.67;0.67;;;20.90;74.40;;;;;;5085773;28;20268;-76
2024/04/01 00:51:39;;;;;;;0.30;0.20;;;20.90;74.30;;;;;;5087137;28;20746;-80
2024/04/01 00:54:07;;;;;;;5.00;2.70;;;20.80;74.30;;;;;;5087283;28;20532;-76
2024/04/01 00:56:34;;;;;;;0.30;0.20;;;20.70;74.30;;;;;;5085507;28;20475;-77
2024/04/01 00:59:02;;;;;;;0.30;0.20;;;20.60;74.30;;;;;;5086996;28;20480;-80
2024/04/01 01:01:29;;;;;;;0.60;0.60;;;20.60;74.40;;;;;;5086919;28;20419;-80
2024/04/01 01:03:55;;;;;;;2.10;2.00;;;20.50;74.30;;;;;;5087078;28;20432;-80
2024/04/01 01:06:21;;;;;;;0.67;0.67;;;20.40;74.40;;;;;;5086919;28;20966;-76
2024/04/01 01:08:47;;;;;;;0.30;0.20;;;20.40;74.50;;;;;;5086724;28;20197;-76
2024/04/01 01:11:13;;;;;;;0.67;0.67;;;20.30;74.60;;;;;;5086809;28;20401;-80
2024/04/01 01:13:39;;;;;;;0.30;0.20;;;20.30;74.60;;;;;;5086267;28;20428;-79
2024/04/01 01:16:05;;;;;;;0.50;0.50;;;20.30;74.70;;;;;;5087205;28;20419;-80
2024/04/01 01:18:31;;;;;;;0.30;0.20;;;20.20;74.70;;;;;;5086395;28;20454;-76
2024/04/01 01:20:57;;;;;;;0.30;0.20;;;20.30;74.70;;;;;;5086790;28;20748;-77
2024/04/01 01:23:23;;;;;;;0.63;0.60;;;20.30;74.70;;;;;;5085234;28;20544;-80
2024/04/01 01:25:48;;;;;;;1.17;0.80;;;20.30;74.60;;;;;;5086890;28;20187;-77
2024/04/01 01:28:14;;;;;;;5.50;2.23;;;20.30;74.70;;;;;;5086159;28;20189;-77
2024/04/01 01:30:39;;;;;;;0.50;0.50;;;20.30;74.60;;;;;;5085101;28;20709;-76
2024/04/01 01:33:07;;;;;;;1.27;1.27;;;20.30;74.70;;;;;;5086459;28;20221;-80
2024/04/01 01:35:35;;;;;;;0.37;0.30;;;20.30;74.80;;;;;;5085038;28;20202;-76
2024/04/01 01:38:03;;;;;;;0.30;0.20;;;20.20;75.00;;;;;;5084728;28;20469;-76
2024/04/01 01:40:29;;;;;;;0.30;0.20;;;20.10;75.20;;;;;;5086689;28;20421;-76
2024/04/01 01:42:55;;;;;;;0.40;0.40;;;19.90;75.40;;;;;;5085612;28;20517;-80
2024/04/01 01:45:20;;;;;;;0.40;0.40;;;19.90;75.70;;;;;;5085417;28;20429;-79
2024/04/01 01:47:46;;;;;;;1.23;1.13;;;19.80;75.70;;;;;;5085201;28;20792;-80
2024/04/01 01:50:12;;;;;;;0.30;0.20;;;19.70;76.00;;;;;;5085590;28;20579;-76
2024/04/01 01:52:37;;;;;;;11.00;1.43;;;19.70;76.40;;;;;;5083361;28;20196;-79
2024/04/01 01:55:05;;;;;;;0.93;0.93;;;19.70;76.90;;;;;;5084024;28;20183;-76
2024/04/01 01:57:31;;;;;;;2.17;1.30;;;19.70;77.20;;;;;;5084282;28;20223;-80
2024/04/01 01:59:57;;;;;;;0.50;0.50;;;19.60;77.50;;;;;;5084140;28;20936;-80
2024/04/01 02:02:23;;;;;;;2.43;1.70;;;19.60;77.70;;;;;;5085613;28;20431;-80
2024/04/01 02:04:48;;;;;;;1.07;0.93;;;19.50;77.90;;;;;;5084266;28;20928;-80
2024/04/01 02:07:14;;;;;;;0.30;0.30;;;19.40;78.10;;;;;;5083884;28;20262;-76
2024/04/01 02:09:40;;;;;;;0.40;0.33;;;19.40;78.30;;;;;;5081030;28;20172;-76
2024/04/01 02:12:09;;;;;;;10.03;2.10;;;19.20;78.30;;;;;;5080274;28;20248;-76
2024/04/01 02:14:38;;;;;;;2.23;2.13;;;19.20;78.60;;;;;;5084425;28;20443;-76
2024/04/01 02:17:05;;;;;;;0.80;0.50;;;19.10;78.80;;;;;;5085205;28;20402;-76
2024/04/01 02:19:35;;;;;;;0.40;0.40;;;19.10;79.10;;;;;;5084246;28;20440;-76
2024/04/01 02:22:01;;;;;;;1.40;0.60;;;19.00;79.10;;;;;;5085507;28;20418;-76
2024/04/01 02:24:26;;;;;;;0.40;0.30;;;19.00;79.20;;;;;;5084341;28;20447;-79
2024/04/01 02:26:55;;;;;;;0.77;0.77;;;19.00;79.30;;;;;;5085591;28;20595;-77
2024/04/01 02:29:22;;;;;;;0.80;0.77;;;18.90;79.30;;;;;;5085520;28;20210;-76
2024/04/01 02:31:48;;;;;;;0.30;0.30;;;18.80;79.30;;;;;;5085533;28;20413;-80
2024/04/01 02:34:14;;;;;;;2.37;2.23;;;18.80;79.20;;;;;;5084202;28;20446;-76
2024/04/01 02:36:40;;;;;;;1.60;1.47;;;18.80;79.30;;;;;;5085275;28;20407;-80
2024/04/01 02:39:05;;;;;;;0.30;0.30;;;18.80;79.40;;;;;;5082262;28;20294;-80
2024/04/01 02:41:35;;;;;;;0.33;0.33;;;18.80;79.40;;;;;;5083797;28;20738;-77
2024/04/01 02:44:00;;;;;;;1.30;1.07;;;18.80;79.40;;;;;;5084936;28;20193;-77
2024/04/01 02:46:26;;;;;;;0.30;0.20;;;18.80;79.60;;;;;;5084866;28;20430;-77
2024/04/01 02:48:52;;;;;;;3.80;2.63;;;18.80;79.60;;;;;;5085250;28;20233;-79
2024/04/01 02:51:17;;;;;;;0.30;0.20;;;18.70;79.60;;;;;;5084411;28;20246;-76
2024/04/01 02:53:47;;;;;;;0.30;0.20;;;18.70;79.70;;;;;;5084724;28;20285;-76
2024/04/01 02:56:16;;;;;;;13.23;2.73;;;18.60;79.80;;;;;;5083968;28;20336;-76
2024/04/01 02:58:45;;;;;;;0.63;0.47;;;18.60;79.80;;;;;;5083469;28;20471;-79
2024/04/01 03:01:11;;;;;;;0.30;0.20;;;18.60;79.60;;;;;;5085308;28;20467;-76
2024/04/01 03:03:37;;;;;;;6.43;2.67;;;18.60;80.40;;;;;;5084821;28;20434;-80
2024/04/01 03:06:03;;;;;;;0.67;0.67;;;18.60;79.60;;;;;;5085365;28;20400;-80
2024/04/01 03:08:30;;;;;;;0.73;0.73;;;18.60;79.50;;;;;;5085267;28;20498;-80
2024/04/01 03:11:02;;;;;;;1.33;1.23;;;18.60;79.50;;;;;;5089393;28;20720;-76
2024/04/01 03:13:28;;;;;;;1.27;0.80;;;18.70;79.60;;;;;;5088973;28;20502;-79
2024/04/01 03:15:56;;;;;;;10.03;4.10;;;18.70;79.80;;;;;;5087756;28;20426;-76
2024/04/01 03:18:22;;;;;;;5.33;2.30;;;18.70;79.80;;;;;;5087429;28;21194;-76
2024/04/01 03:20:48;;;;;;;3.50;2.00;;;18.70;80.20;;;;;;5087607;28;20804;-76
2024/04/01 03:23:14;;;;;;;0.30;0.20;;;18.70;80.40;;;;;;5089106;28;20439;-76
2024/04/01 03:25:41;;;;;;;0.57;0.57;;;18.70;80.30;;;;;;5088979;28;20179;-76
2024/04/01 03:28:06;;;;;;;0.30;0.20;;;18.70;80.30;;;;;;5088484;28;20496;-76
2024/04/01 03:30:33;;;;;;;0.30;0.20;;;18.70;80.20;;;;;;5088786;28;20914;-80
2024/04/01 03:33:00;;;;;;;2.93;2.53;;;18.60;80.10;;;;;;5088446;28;20866;-80
2024/04/01 03:35:26;;;;;;;0.50;0.50;;;18.50;80.30;;;;;;5088915;28;20513;-76
2024/04/01 03:37:52;;;;;;;0.80;0.80;;;18.50;80.50;;;;;;5087062;28;20580;-79
2024/04/01 03:40:19;;;;;;;0.67;0.67;;;18.50;80.40;;;;;;5087445;28;20447;-80
2024/04/01 03:42:45;;;;;;;0.30;0.20;;;18.50;80.50;;;;;;5088877;28;20427;-81
2024/04/01 03:45:10;;;;;;;0.40;0.40;;;18.50;80.60;;;;;;5087227;28;20480;-76
2024/04/01 03:47:37;;;;;;;0.60;0.60;;;18.50;80.50;;;;;;5087106;28;20716;-80
2024/04/01 03:50:05;;;;;;;0.30;0.23;;;18.50;80.60;;;;;;5087461;28;20186;-79
2024/04/01 03:52:37;;;;;;;0.50;0.47;;;18.40;80.60;;;;;;5087028;28;20444;-76
2024/04/01 03:55:03;;;;;;;0.30;0.20;;;18.30;80.80;;;;;;5088371;28;20536;-76
2024/04/01 03:57:28;;;;;;;0.30;0.30;;;18.30;80.70;;;;;;5088116;28;20532;-76
2024/04/01 03:59:54;;;;;;;0.30;0.20;;;18.30;80.70;;;;;;5088500;28;20434;-79
2024/04/01 04:02:19;;;;;;;0.30;0.20;;;18.30;80.60;;;;;;5086888;28;20189;-80
2024/04/01 04:04:45;;;;;;;0.30;0.30;;;18.40;80.60;;;;;;5088453;28;20178;-80
2024/04/01 04:07:11;;;;;;;0.30;0.30;;;18.30;80.50;;;;;;5086775;28;20458;-76
2024/04/01 04:09:37;;;;;;;0.40;0.30;;;18.30;80.50;;;;;;5088321;28;20463;-76
2024/04/01 04:12:03;;;;;;;0.30;0.30;;;18.30;80.00;;;;;;5087565;28;20171;-76
2024/04/01 04:14:30;;;;;;;0.30;0.30;;;18.20;80.00;;;;;;5088010;28;20186;-79
2024/04/01 04:16:56;;;;;;;0.30;0.30;;;18.20;79.90;;;;;;5087463;28;20500;-80
2024/04/01 04:19:22;;;;;;;0.33;0.30;;;18.20;79.90;;;;;;5086619;28;20966;-76
2024/04/01 04:21:47;;;;;;;1.07;0.97;;;18.20;79.60;;;;;;5088001;28;20486;-80
2024/04/01 04:24:14;;;;;;;0.30;0.20;;;18.20;79.90;;;;;;5087688;28;20857;-77
2024/04/01 04:26:41;;;;;;;0.30;0.20;;;18.20;79.80;;;;;;5087694;28;20183;-80
2024/04/01 04:29:07;;;;;;;0.40;0.40;;;18.20;79.80;;;;;;5087264;28;20876;-76
2024/04/01 04:31:32;;;;;;;0.30;0.20;;;18.30;79.80;;;;;;5086363;28;20459;-77
2024/04/01 04:33:59;;;;;;;0.40;0.40;;;18.30;79.50;;;;;;5087152;28;20206;-80
2024/04/01 04:36:25;;;;;;;0.97;0.97;;;18.30;79.50;;;;;;5087640;28;20184;-77
2024/04/01 04:38:51;;;;;;;0.40;0.40;;;18.40;79.50;;;;;;5087109;28;20478;-77
2024/04/01 04:41:17;;;;;;;0.40;0.30;;;18.40;79.50;;;;;;5087373;28;20181;-77
2024/04/01 04:43:46;;;;;;;0.30;0.20;;;18.40;79.40;;;;;;5085797;28;20443;-77
2024/04/01 04:46:12;;;;;;;0.40;0.40;;;18.40;79.40;;;;;;5087298;28;20758;-78
2024/04/01 04:48:45;;;;;;;0.60;0.40;;;18.40;79.40;;;;;;5087326;28;21024;-80
2024/04/01 04:51:11;;;;;;;0.30;0.20;;;18.40;79.60;;;;;;5087190;28;20426;-80
2024/04/01 04:53:38;;;;;;;0.30;0.30;;;18.30;79.60;;;;;;5086290;28;20427;-76
2024/04/01 04:56:05;;;;;;;0.40;0.40;;;18.30;79.70;;;;;;5086666;28;20437;-80
2024/04/01 04:58:31;;;;;;;0.63;0.63;;;18.30;79.80;;;;;;5086689;28;21070;-76
2024/04/01 05:00:56;;;;;;;0.30;0.20;;;18.30;79.80;;;;;;5086937;28;20507;-77
2024/04/01 05:03:22;;;;;;;0.80;0.77;;;18.30;79.90;;;;;;5085168;28;20806;-80
2024/04/01 05:05:48;;;;;;;0.83;0.83;;;18.20;80.00;;;;;;5085820;28;20189;-80
2024/04/01 05:08:14;;;;;;;0.30;0.20;;;18.20;80.00;;;;;;5086782;28;20525;-79
2024/04/01 05:10:39;;;;;;;0.60;0.50;;;18.10;80.40;;;;;;5085661;28;20181;-76
2024/04/01 05:13:05;;;;;;;0.47;0.47;;;18.00;80.30;;;;;;5086631;28;20193;-77
2024/04/01 05:15:31;;;;;;;0.30;0.20;;;18.00;80.50;;;;;;5085546;28;20198;-77
2024/04/01 05:17:57;;;;;;;0.30;0.20;;;18.00;80.60;;;;;;5086596;28;20212;-80
2024/04/01 05:20:23;;;;;;;1.47;1.47;;;18.00;80.20;;;;;;5086715;28;20670;-80
2024/04/01 05:22:49;;;;;;;0.30;0.20;;;18.10;80.00;;;;;;5086951;28;20185;-80
2024/04/01 05:25:14;;;;;;;0.30;0.20;;;18.10;80.00;;;;;;5086669;28;20465;-80
2024/04/01 05:27:40;;;;;;;0.30;0.20;;;18.10;79.90;;;;;;5086451;28;20417;-76
2024/04/01 05:30:10;;;;;;;0.73;0.73;;;18.20;79.90;;;;;;5086425;28;20198;-76
2024/04/01 05:32:37;;;;;;;0.30;0.20;;;18.20;79.60;;;;;;5086219;28;20197;-76
2024/04/01 05:35:05;;;;;;;0.50;0.40;;;18.30;79.60;;;;;;5086882;28;20415;-76
2024/04/01 05:37:34;;;;;;;0.30;0.20;;;18.30;79.80;;;;;;5084884;28;20611;-79
2024/04/01 05:40:00;;;;;;;0.40;0.30;;;18.40;79.50;;;;;;5086659;28;20429;-79
2024/04/01 05:42:26;;;;;;;0.60;0.60;;;18.40;79.60;;;;;;5086192;28;20443;-76
2024/04/01 05:44:52;;;;;;;2.20;0.63;;;18.50;79.80;;;;;;5086538;28;20517;-79
2024/04/01 05:47:18;;;;;;;0.30;0.20;;;18.50;79.50;;;;;;5084688;28;20805;-80
2024/04/01 05:49:44;;;;;;;7.67;1.90;;;18.60;79.80;;;;;;5086737;28;20390;-76
2024/04/01 05:52:10;;;;;;;9.43;3.60;;;18.70;79.90;;;;;;5085940;28;20320;-76
2024/04/01 05:54:35;;;;;;;4.63;2.83;;;18.70;79.80;;;;;;5085750;28;20205;-77
2024/04/01 05:57:01;;;;;;;0.60;0.60;;;18.80;80.10;;;;;;5086026;28;20483;-80
2024/04/01 05:59:28;;;;;;;0.40;0.40;;;18.80;80.40;;;;;;5086216;28;20215;-76
2024/04/01 06:01:57;;;;;;;0.30;0.30;;;18.80;80.30;;;;;;5085826;28;20773;-76
2024/04/01 06:04:25;;;;;;;1.80;1.70;;;18.80;80.40;;;;;;5085794;28;20443;-80
2024/04/01 06:06:51;;;;;;;0.30;0.20;;;18.80;80.30;;;;;;5086337;28;20405;-80
2024/04/01 06:09:17;;;;;;;0.30;0.20;;;18.80;80.60;;;;;;5085819;28;20442;-77
2024/04/01 06:11:43;;;;;;;0.30;0.30;;;18.80;80.50;;;;;;5085009;28;20410;-79
2024/04/01 06:14:09;;;;;;;3.50;1.07;;;18.90;81.30;;;;;;5086006;28;20447;-80
2024/04/01 06:16:36;;;;;;;0.57;0.57;;;18.90;80.60;;;;;;5101216;28;20960;-76
2024/04/01 06:19:02;;;;;;;1.60;1.20;;;18.90;80.80;;;;;;5085091;28;20489;-80
2024/04/01 06:21:27;;;;;;;0.80;0.80;;;19.00;80.60;;;;;;5085168;28;20408;-79
2024/04/01 06:23:53;;;;;;;0.30;0.20;;;19.00;80.30;;;;;;5084168;28;20455;-76
2024/04/01 06:26:19;;;;;;;0.50;0.50;;;19.10;80.30;;;;;;5101026;28;20179;-75
2024/04/01 06:28:48;;;;;;;0.30;0.20;;;19.10;80.50;;;;;;5085296;28;20198;-80
2024/04/01 06:31:14;;;;;;;1.43;0.43;;;19.20;80.80;;;;;;5100779;28;20191;-79
2024/04/01 06:33:40;;;;;;;0.57;0.57;;;19.30;81.00;;;;;;5084386;28;20451;-79
2024/04/01 06:36:07;;;;;;;0.40;0.30;;;19.30;81.10;;;;;;5085526;28;20413;-80
2024/04/01 06:38:33;;;;;;;0.53;0.53;;;19.40;81.10;;;;;;5100693;28;21004;-81
2024/04/01 06:40:59;;;;;;;1.27;0.97;;;19.50;81.10;;;;;;5084661;28;20405;-81
2024/04/01 06:43:25;;;;;;;1.33;1.23;;;19.60;81.10;;;;;;5082038;28;20594;-83
2024/04/01 06:45:55;;;;;;;0.30;0.30;;;19.80;81.20;;;;;;5082982;28;20505;-83
2024/04/01 06:48:22;;;;;;;0.40;0.40;;;19.90;81.10;;;;;;5099336;28;20427;-78
2024/04/01 06:50:48;;;;;;;0.40;0.40;;;20.00;81.30;;;;;;5099312;28;20421;-79
2024/04/01 06:53:17;;;;;;;0.30;0.30;;;20.10;81.30;;;;;;5083210;28;20431;-78
2024/04/01 06:55:45;;;;;;;0.30;0.30;;;20.10;81.30;;;;;;5097967;28;20971;-80
2024/04/01 06:58:12;;;;;;;0.30;0.30;;;20.20;81.30;;;;;;5084648;28;20469;-78
2024/04/01 07:00:38;;;;;;;0.40;0.30;;;20.30;81.30;;;;;;5085469;28;20519;-79
2024/04/01 07:03:05;;;;;;;0.50;0.37;;;20.30;81.50;;;;;;5085185;28;20429;-79
2024/04/01 07:05:30;;;;;;;1.63;1.37;;;20.50;81.60;;;;;;5085470;28;20922;-74
2024/04/01 07:07:57;;;;;;;0.77;0.77;;;20.60;81.50;;;;;;5100538;28;20552;-78
2024/04/01 07:10:23;;;;;;;1.27;1.27;;;20.60;81.10;;;;;;5100660;28;20180;-76
2024/04/01 07:12:49;;;;;;;0.30;0.20;;;20.80;81.10;;;;;;5100394;28;20551;-78
2024/04/01 07:15:15;;;;;;;3.90;3.13;;;20.90;81.20;;;;;;5085077;28;20421;-84
2024/04/01 07:17:43;;;;;;;3.30;3.10;;;21.10;81.50;;;;;;5084890;28;20872;-76
2024/04/01 07:20:09;;;;;;;0.30;0.30;;;21.30;80.70;;;;;;5100211;28;20425;-80
2024/04/01 07:22:36;;;;;;;0.40;0.40;;;21.40;80.40;;;;;;5084923;28;20436;-80
2024/04/01 07:25:04;;;;;;;1.63;1.53;;;21.60;80.30;;;;;;5085058;28;20409;-77
2024/04/01 07:27:34;;;;;;;1.90;0.90;;;21.70;80.60;;;;;;5083881;28;20977;-81
2024/04/01 07:30:09;;;;;;;6.80;3.53;;;21.90;80.10;;;;;;5083197;28;20427;-76
2024/04/01 07:32:35;;;;;;;1.60;1.00;;;21.90;79.60;;;;;;5098751;28;20498;-81
2024/04/01 07:35:02;;;;;;;2.07;1.17;;;22.10;79.10;;;;;;5100019;28;20726;-83
2024/04/01 07:37:29;;;;;;;2.40;2.30;;;22.10;79.00;;;;;;5083970;28;20501;-77
2024/04/01 07:39:55;;;;;;;18.77;2.97;;;22.30;78.30;;;;;;5084054;28;20415;-82
2024/04/01 07:42:21;;;;;;;1.53;1.20;;;22.40;79.10;;;;;;5083156;28;20426;-81
2024/04/01 07:44:47;;;;;;;8.27;2.70;;;22.60;78.10;;;;;;5083539;28;20806;-79
2024/04/01 07:47:13;;;;;;;1.33;1.07;;;22.70;77.70;;;;;;5084647;28;20186;-78
2024/04/01 07:49:39;;;;;;;1.10;1.00;;;22.90;77.40;;;;;;5083758;28;20416;-75
2024/04/01 07:52:07;;;;;;;9.20;1.40;;;23.00;77.40;;;;;;5082894;28;20782;-81
2024/04/01 07:54:33;;;;;;;0.60;0.60;;;23.10;77.00;;;;;;5100275;28;20785;-76
2024/04/01 07:57:02;;;;;;;1.20;1.13;;;23.20;78.00;;;;;;5085416;28;20463;-77
2024/04/01 07:59:31;;;;;;;0.47;0.47;;;23.30;77.20;;;;;;5086292;28;20427;-80
2024/04/01 08:01:58;;;;;;;0.97;0.93;;;23.40;77.20;;;;;;5101917;28;20510;-80
2024/04/01 08:04:24;;;;;;;0.30;0.30;;;23.50;76.70;;;;;;5087220;28;20517;-80
2024/04/01 08:06:50;;;;;;;3.27;1.40;;;23.60;76.90;;;;;;5102135;28;20416;-78
2024/04/01 08:09:16;;;;;;;1.80;1.70;;;23.80;75.70;;;;;;5086757;28;20211;-78
2024/04/01 08:11:42;;;;;;;1.90;1.50;;;23.90;76.30;;;;;;5102417;28;20408;-78
2024/04/01 08:14:08;;;;;;;2.30;2.20;;;24.10;75.40;;;;;;5086353;28;20561;-80
2024/04/01 08:16:33;;;;;;;3.60;1.03;;;24.10;75.10;;;;;;5101967;28;20188;-78
2024/04/01 08:19:00;;;;;;;0.30;0.20;;;24.20;74.90;;;;;;5101699;28;20220;-77
2024/04/01 08:21:26;;;;;;;1.17;0.77;;;24.30;75.70;;;;;;5086225;28;20641;-77
2024/04/01 08:23:51;;;;;;;0.80;0.80;;;24.50;75.60;;;;;;5101013;28;20452;-77
2024/04/01 08:26:17;;;;;;;0.80;0.80;;;24.70;74.80;;;;;;5100379;28;20220;-77
2024/04/01 08:28:43;;;;;;;0.87;0.87;;;24.90;74.70;;;;;;5085032;28;20688;-77
2024/04/01 08:31:08;;;;;;;2.97;1.73;;;25.00;74.30;;;;;;5102081;28;20191;-78
2024/04/01 08:33:34;;;;;;;3.70;1.13;;;25.20;73.80;;;;;;5085996;28;20193;-79
2024/04/01 08:36:00;;;;;;;0.40;0.40;;;25.20;73.30;;;;;;5102116;28;20204;-77
2024/04/01 08:38:26;;;;;;;1.80;1.23;;;25.40;74.00;;;;;;5084377;28;20208;-77
2024/04/01 08:41:05;;;;;;;0.70;0.70;;;25.90;73.90;;;;;;5084699;28;20423;-78
2024/04/01 08:43:39;;;;;;;0.30;0.20;;;26.40;73.50;;;;;;5086299;28;20193;-77
2024/04/01 08:46:05;;;;;;;0.30;0.20;;;26.90;72.00;;;;;;5087139;28;20746;-77
2024/04/01 08:48:31;;;;;;;1.33;1.23;;;27.30;71.80;;;;;;5102449;28;20448;-77
2024/04/01 08:51:03;;;;;;;4.40;2.87;;;27.60;70.80;;;;;;5085916;28;20412;-78
2024/04/01 08:53:38;;;;;;;2.63;2.10;;;27.80;69.70;;;;;;5101221;28;20713;-78
2024/04/01 08:56:06;;;;;;;11.53;3.70;;;28.00;70.30;;;;;;5086332;28;20543;-78
2024/04/01 08:58:33;;;;;;;1.60;1.50;;;28.10;69.70;;;;;;5102329;28;20477;-78
2024/04/01 09:00:59;;;;;;;0.47;0.47;;;28.10;69.90;;;;;;5102442;28;20408;-78
2024/04/01 09:03:24;;;;;;;0.40;0.40;;;28.20;70.40;;;;;;5086274;28;20513;-78
2024/04/01 09:05:54;;;;;;;1.17;1.03;;;28.40;69.80;;;;;;5086263;28;20590;-78
2024/04/01 09:08:20;;;;;;;4.40;4.00;;;28.40;69.50;;;;;;5086720;28;21323;-77
2024/04/01 09:10:46;;;;;;;0.50;0.50;;;28.30;69.80;;;;;;5087529;28;20958;-77
2024/04/01 09:13:13;;;;;;;15.93;1.43;;;28.40;69.70;;;;;;5102306;28;20430;-78
2024/04/01 09:15:40;;;;;;;0.37;0.30;;;28.50;69.20;;;;;;5102784;28;20185;-78
2024/04/01 09:18:11;;;;;;;0.33;0.30;;;28.40;69.60;;;;;;5102041;28;20468;-77
2024/04/01 09:20:39;;;;;;;0.70;0.53;;;28.40;70.20;;;;;;5086943;28;20890;-77
2024/04/01 09:23:06;;;;;;;3.27;2.20;;;28.30;69.50;;;;;;5102338;28;20476;-78
2024/04/01 09:25:31;;;;;;;2.40;1.17;;;28.20;69.60;;;;;;5086665;28;20901;-77
2024/04/01 09:27:57;;;;;;;3.60;1.80;;;28.20;68.90;;;;;;5086186;28;20274;-77
2024/04/01 09:30:23;;;;;;;0.67;0.67;;;28.10;69.70;;;;;;5086620;28;20180;-77
2024/04/01 09:32:48;;;;;;;1.10;0.47;;;28.10;70.00;;;;;;5086408;28;20198;-77
2024/04/01 09:35:14;;;;;;;6.57;3.73;;;28.10;69.70;;;;;;5085803;28;20231;-78
2024/04/01 09:37:40;;;;;;;2.30;1.70;;;28.20;69.70;;;;;;5101395;28;20496;-77
2024/04/01 09:40:07;;;;;;;1.00;0.60;;;28.10;70.10;;;;;;5086554;28;20934;-77
2024/04/01 09:42:34;;;;;;;3.37;1.80;;;28.00;70.10;;;;;;5086040;28;20244;-78
2024/04/01 09:44:59;;;;;;;7.23;6.00;;;28.00;70.10;;;;;;5086466;28;20838;-77
2024/04/01 09:47:26;;;;;;;1.77;1.67;;;27.90;70.00;;;;;;5085475;28;20454;-78
2024/04/01 09:49:52;;;;;;;1.73;1.63;;;27.70;70.30;;;;;;5102190;28;20622;-77
2024/04/01 09:52:18;;;;;;;4.00;2.63;;;27.60;70.90;;;;;;5101628;28;20431;-77
2024/04/01 09:54:49;;;;;;;12.30;1.83;;;27.60;70.40;;;;;;5085397;28;20405;-77
2024/04/01 09:57:21;;;;;;;1.50;1.40;;;27.50;71.00;;;;;;5084264;28;20236;-76
2024/04/01 10:00:13;;;;;;;0.30;0.30;;;27.50;71.20;;;;;;5084729;28;20789;-78
2024/04/01 10:02:57;;;;;;;1.63;1.03;;;27.50;71.20;;;;;;5083021;28;20425;-77
2024/04/01 10:05:54;;;;;;;17.60;1.23;;;27.60;70.40;;;;;;5084169;28;20416;-78
2024/04/01 10:08:50;;;;;;;0.30;0.20;;;27.80;69.60;;;;;;5084176;28;20422;-78
2024/04/01 10:11:29;;;;;;;2.93;2.80;;;28.00;67.70;;;;;;5085482;28;20406;-77
2024/04/01 10:14:16;;;;;;;1.63;1.47;;;28.00;67.50;;;;;;5085120;28;20452;-78
2024/04/01 10:17:06;;;;;;;2.30;2.20;;;28.00;67.00;;;;;;5085225;28;20903;-78
2024/04/01 10:19:53;;;;;;;1.90;1.80;;;28.10;66.40;;;;;;5085467;28;20467;-77
2024/04/01 10:22:31;;;;;;;3.17;2.87;;;28.00;66.10;;;;;;5085734;28;21152;-78
2024/04/01 10:25:27;;;;;;;3.40;1.63;;;28.00;66.30;;;;;;5101195;28;20432;-78
2024/04/01 10:28:36;;;;;;;2.20;1.27;;;28.00;66.50;;;;;;5085899;28;20599;-78
2024/04/01 10:31:39;;;;;;;0.47;0.47;;;28.10;66.30;;;;;;5085700;28;20452;-77
2024/04/01 10:34:07;;;;;;;2.77;2.63;;;28.10;66.50;;;;;;5100744;28;20531;-77
2024/04/01 10:36:36;;;;;;;2.20;2.00;;;28.20;65.70;;;;;;5100988;28;20647;-77
2024/04/01 10:39:26;;;;;;;2.20;1.87;;;28.20;66.10;;;;;;5085234;28;20600;-78
2024/04/01 10:42:00;;;;;;;4.20;1.90;;;28.20;66.30;;;;;;5101082;28;20783;-77
2024/04/01 10:45:05;;;;;;;6.03;4.03;;;28.30;66.10;;;;;;5085636;28;20649;-77
2024/04/01 10:47:49;;;;;;;9.13;0.80;;;28.40;65.20;;;;;;5100854;28;20446;-77
2024/04/01 10:50:44;;;;;;;2.70;2.60;;;28.30;65.30;;;;;;5100984;28;20478;-77
2024/04/01 10:53:47;;;;;;;2.40;2.20;;;28.40;65.20;;;;;;5085420;28;20616;-78
2024/04/01 10:56:27;;;;;;;38.13;2.60;;;28.40;65.10;;;;;;5084710;28;20855;-77
2024/04/01 10:59:26;;;;;;;0.80;0.77;;;28.50;65.20;;;;;;5085237;28;20471;-77
2024/04/01 11:02:19;;;;;;;4.00;3.60;;;28.60;65.50;;;;;;5081648;28;20415;-77
2024/04/01 11:05:13;;;;;;;1.03;1.03;;;28.70;65.10;;;;;;5099884;28;20434;-78
2024/04/01 11:07:48;;;;;;;17.47;5.67;;;28.70;65.00;;;;;;5084543;28;20434;-77
2024/04/01 11:10:23;;;;;;;1.40;1.13;;;28.70;65.10;;;;;;5085484;28;20423;-77
2024/04/01 11:13:06;;;;;;;4.27;3.80;;;28.80;65.50;;;;;;5085317;28;20816;-77
2024/04/01 11:15:32;;;;;;;2.40;2.30;;;28.70;64.60;;;;;;5085352;28;20509;-77
2024/04/01 11:18:10;;;;;;;3.47;3.17;;;28.70;64.80;;;;;;5084899;28;20481;-78
2024/04/01 11:20:52;;;;;;;2.60;0.93;;;28.70;65.20;;;;;;5085209;28;20427;-77
2024/04/01 11:23:59;;;;;;;1.90;1.70;;;28.80;64.30;;;;;;5084871;28;20489;-78
2024/04/01 11:26:50;;;;;;;1.23;1.13;;;29.10;65.10;;;;;;5045119;28;21007;-78
2024/04/01 11:29:41;;;;;;;5.57;2.63;;;29.10;64.50;;;;;;5063113;28;20539;-78
2024/04/01 11:32:17;;;;;;;2.63;1.63;;;29.20;64.00;;;;;;5079888;28;20720;-78
2024/04/01 11:34:54;;;;;;;4.30;1.60;;;29.10;64.00;;;;;;5089005;28;20432;-77
2024/04/01 11:37:44;;;;;;;2.80;2.60;;;29.10;64.00;;;;;;5088707;28;20862;-78
2024/04/01 11:40:14;;;;;;;4.43;2.03;;;29.10;64.70;;;;;;5104409;28;20551;-78
2024/04/01 11:42:46;;;;;;;2.37;2.20;;;29.20;64.00;;;;;;5088650;28;20545;-78
2024/04/01 11:45:17;;;;;;;2.93;2.37;;;29.20;64.90;;;;;;5088920;28;20771;-78
2024/04/01 11:47:44;;;;;;;2.20;0.93;;;29.30;64.20;;;;;;5088514;28;20447;-77
2024/04/01 11:50:20;;;;;;;13.70;4.50;;;29.40;63.80;;;;;;5104305;28;20435;-78
2024/04/01 11:53:03;;;;;;;2.30;1.23;;;29.50;65.10;;;;;;5088181;28;20438;-77
2024/04/01 11:55:29;;;;;;;1.90;1.67;;;29.40;64.20;;;;;;5088380;28;20471;-78
2024/04/01 11:58:06;;;;;;;5.20;3.97;;;29.50;63.90;;;;;;5088116;28;21088;-78
2024/04/01 12:00:32;;;;;;;1.43;1.33;;;29.60;63.60;;;;;;5088356;28;20424;-78
2024/04/01 12:02:58;;;;;;;2.93;2.13;;;29.60;63.60;;;;;;5088172;28;20429;-78
2024/04/01 12:05:24;;;;;;;1.50;0.50;;;29.70;63.30;;;;;;5088476;28;20169;-77
2024/04/01 12:07:50;;;;;;;1.90;1.60;;;29.60;63.30;;;;;;5087345;28;20835;-78
2024/04/01 12:10:17;;;;;;;8.03;1.03;;;29.60;63.70;;;;;;5087997;28;20180;-78
2024/04/01 12:12:46;;;;;;;6.40;4.57;;;29.60;63.20;;;;;;5103574;28;20436;-77
2024/04/01 12:15:19;;;;;;;1.80;1.70;;;29.70;63.60;;;;;;5088299;28;20493;-77
2024/04/01 12:17:49;;;;;;;2.43;2.33;;;29.80;63.30;;;;;;5087713;28;20916;-78
2024/04/01 12:20:15;;;;;;;0.30;0.20;;;29.70;62.50;;;;;;5088135;28;20416;-77
2024/04/01 12:22:41;;;;;;;7.50;3.67;;;29.70;62.50;;;;;;5087881;28;20466;-78
2024/04/01 12:25:15;;;;;;;1.77;1.33;;;29.80;62.70;;;;;;5103353;28;20184;-78
2024/04/01 12:27:43;;;;;;;6.97;4.40;;;29.70;62.50;;;;;;5088212;28;20427;-77
2024/04/01 12:30:09;;;;;;;2.50;2.30;;;29.70;62.60;;;;;;5088340;28;20478;-78
2024/04/01 12:32:43;;;;;;;17.33;3.70;;;29.70;62.00;;;;;;5087643;28;20549;-78
2024/04/01 12:35:14;;;;;;;4.63;0.93;;;29.80;63.00;;;;;;5087781;28;20481;-77
2024/04/01 12:37:43;;;;;;;0.50;0.40;;;29.80;61.80;;;;;;5087303;28;20445;-78
2024/04/01 12:40:10;;;;;;;0.97;0.97;;;29.90;61.60;;;;;;5087202;28;20428;-78
2024/04/01 12:42:37;;;;;;;3.00;1.57;;;29.90;62.30;;;;;;5087481;28;20446;-78
2024/04/01 12:45:06;;;;;;;2.63;2.37;;;30.00;62.10;;;;;;5103223;28;20475;-78
2024/04/01 12:47:35;;;;;;;4.83;1.67;;;29.90;61.10;;;;;;5087309;28;20471;-78
2024/04/01 12:50:02;;;;;;;6.20;4.47;;;29.80;61.10;;;;;;5087582;28;20420;-78
2024/04/01 12:52:46;;;;;;;13.53;3.30;;;29.80;61.50;;;;;;5087153;28;20429;-78
2024/04/01 12:55:32;;;;;;;1.80;1.70;;;29.80;61.00;;;;;;5087108;28;20497;-77